createdAt,value
2022-11-24T00:01:28.572Z,2.58
2022-11-24T00:03:59.480Z,2.85
2022-11-24T00:06:26.576Z,2.90
2022-11-24T00:09:01.049Z,2.63
2022-11-24T00:11:37.966Z,3.00
2022-11-24T00:14:06.284Z,2.60
2022-11-24T00:16:36.618Z,3.17
2022-11-24T00:19:09.092Z,3.22
2022-11-24T00:21:39.007Z,3.10
2022-11-24T00:24:09.750Z,2.80
2022-11-24T00:26:38.755Z,2.83
2022-11-24T00:29:07.891Z,3.08
2022-11-24T00:31:41.461Z,2.60
2022-11-24T00:34:14.408Z,3.13
2022-11-24T00:36:41.748Z,2.60
2022-11-24T00:39:14.770Z,3.08
2022-11-24T00:41:44.293Z,3.08
2022-11-24T00:44:13.514Z,2.92
2022-11-24T00:46:42.692Z,2.57
2022-11-24T00:49:11.815Z,3.38
2022-11-24T00:51:40.721Z,2.65
2022-11-24T00:54:07.261Z,3.10
2022-11-24T00:56:34.831Z,2.90
2022-11-24T00:59:03.637Z,2.97
2022-11-24T01:01:31.356Z,2.70
2022-11-24T01:04:03.315Z,2.60
2022-11-24T01:06:35.762Z,2.80
2022-11-24T01:09:02.774Z,2.75
2022-11-24T01:11:54.491Z,2.50
2022-11-24T01:14:24.848Z,3.10
2022-11-24T01:16:53.935Z,2.72
2022-11-24T01:19:21.039Z,2.40
2022-11-24T01:21:50.131Z,3.10
2022-11-24T01:24:17.149Z,2.57
2022-11-24T01:26:43.720Z,2.67
2022-11-24T01:29:13.142Z,3.00
2022-11-24T01:31:42.473Z,3.38
2022-11-24T01:34:09.095Z,2.60
2022-11-24T01:36:35.699Z,2.70
2022-11-24T01:39:04.818Z,2.45
2022-11-24T01:41:31.333Z,2.80
2022-11-24T01:44:00.130Z,2.50
2022-11-24T01:46:33.646Z,2.33
2022-11-24T01:49:00.350Z,2.43
2022-11-24T01:51:33.733Z,2.45
2022-11-24T01:54:07.278Z,2.80
2022-11-24T01:56:36.622Z,2.55
2022-11-24T01:59:07.531Z,2.40
2022-11-24T02:01:36.895Z,2.30
2022-11-24T02:04:09.028Z,2.53
2022-11-24T02:06:42.880Z,2.55
2022-11-24T02:09:28.257Z,2.47
2022-11-24T02:11:55.963Z,2.65
2022-11-24T02:14:26.264Z,2.57
2022-11-24T02:16:53.271Z,2.17
2022-11-24T02:19:32.102Z,2.35
2022-11-24T02:21:58.899Z,2.80
2022-11-24T02:24:39.741Z,2.40
2022-11-24T02:27:06.439Z,2.67
2022-11-24T02:29:33.291Z,2.50
2022-11-24T02:32:04.800Z,2.50
2022-11-24T02:34:34.111Z,2.60
2022-11-24T02:37:03.309Z,3.05
2022-11-24T02:39:34.639Z,2.67
2022-11-24T02:42:08.241Z,2.90
2022-11-24T02:44:40.572Z,3.30
2022-11-24T02:47:14.521Z,2.45
2022-11-24T02:49:43.300Z,3.30
2022-11-24T02:52:09.849Z,2.73
2022-11-24T02:54:36.718Z,3.28
2022-11-24T02:57:06.081Z,2.50
2022-11-24T02:59:32.708Z,2.40
2022-11-24T03:02:04.246Z,2.58
2022-11-24T03:04:35.555Z,3.07
2022-11-24T03:07:02.364Z,2.58
2022-11-24T03:09:33.411Z,2.72
2022-11-24T03:11:59.963Z,2.40
2022-11-24T03:14:29.224Z,2.47
2022-11-24T03:16:58.033Z,2.43
2022-11-24T03:19:24.542Z,1.92
2022-11-24T03:21:51.389Z,2.05
2022-11-24T03:24:17.949Z,2.40
2022-11-24T03:26:46.704Z,1.85
2022-11-24T03:29:13.277Z,1.83
2022-11-24T03:31:42.210Z,1.90
2022-11-24T03:34:08.969Z,1.80
2022-11-24T03:36:37.746Z,2.28
2022-11-24T03:39:09.065Z,2.10
2022-11-24T03:41:37.831Z,1.70
2022-11-24T03:44:04.685Z,1.67
2022-11-24T03:46:31.310Z,1.65
2022-11-24T03:49:00.162Z,1.60
2022-11-24T03:51:26.687Z,1.85
2022-11-24T03:53:53.261Z,1.70
2022-11-24T03:56:20.612Z,1.60
2022-11-24T03:58:47.145Z,1.40
2022-11-24T04:01:13.717Z,1.38
2022-11-24T04:03:40.279Z,1.60
2022-11-24T04:06:09.412Z,1.60
2022-11-24T04:08:35.962Z,1.60
2022-11-24T04:11:05.231Z,1.45
2022-11-24T04:13:36.516Z,1.50
2022-11-24T04:16:06.246Z,1.00
2022-11-24T04:18:32.856Z,1.30
2022-11-24T04:21:01.613Z,1.20
2022-11-24T04:23:33.109Z,1.10
2022-11-24T04:25:59.641Z,1.27
2022-11-24T04:28:28.724Z,1.02
2022-11-24T04:30:57.780Z,1.30
2022-11-24T04:33:26.825Z,1.02
2022-11-24T04:35:54.103Z,1.08
2022-11-24T04:39:24.422Z,0.80
2022-11-24T04:41:10.154Z,1.05
2022-11-24T04:43:40.754Z,0.93
2022-11-24T04:46:12.690Z,1.10
2022-11-24T04:48:41.930Z,0.98
2022-11-24T04:51:08.480Z,0.70
2022-11-24T04:53:37.549Z,0.80
2022-11-24T04:56:06.233Z,0.83
2022-11-24T04:58:33.304Z,1.00
2022-11-24T05:00:59.855Z,0.88
2022-11-24T05:03:28.750Z,0.90
2022-11-24T05:06:00.745Z,1.50
2022-11-24T05:08:29.819Z,0.97
2022-11-24T05:10:56.368Z,0.88
2022-11-24T05:13:25.208Z,0.80
2022-11-24T05:15:51.883Z,0.65
2022-11-24T05:18:20.795Z,0.77
2022-11-24T05:20:47.359Z,1.10
2022-11-24T05:23:18.396Z,0.80
2022-11-24T05:25:47.889Z,0.90
2022-11-24T05:28:14.920Z,0.65
2022-11-24T05:30:41.793Z,0.60
2022-11-24T05:33:18.935Z,0.90
2022-11-24T05:35:46.644Z,0.80
2022-11-24T05:38:14.139Z,0.70
2022-11-24T05:40:40.687Z,0.75
2022-11-24T05:43:18.602Z,0.90
2022-11-24T05:45:45.472Z,0.60
2022-11-24T05:48:17.064Z,0.88
2022-11-24T05:50:46.341Z,0.80
2022-11-24T05:53:17.763Z,0.70
2022-11-24T05:55:44.257Z,0.70
2022-11-24T05:58:10.788Z,0.90
2022-11-24T06:00:39.816Z,1.00
2022-11-24T06:03:06.842Z,0.93
2022-11-24T06:05:35.681Z,0.80
2022-11-24T06:08:02.222Z,0.70
2022-11-24T06:10:31.258Z,1.00
2022-11-24T06:12:57.794Z,0.70
2022-11-24T06:15:26.546Z,0.95
2022-11-24T06:17:56.772Z,0.70
2022-11-24T06:20:29.798Z,0.80
2022-11-24T06:23:01.756Z,0.70
2022-11-24T06:25:31.063Z,0.70
2022-11-24T06:27:57.655Z,1.23
2022-11-24T06:30:26.299Z,0.93
2022-11-24T06:32:55.909Z,0.80
2022-11-24T06:35:24.934Z,1.03
2022-11-24T06:37:51.504Z,0.93
2022-11-24T06:40:20.541Z,0.90
2022-11-24T06:42:51.700Z,0.80
2022-11-24T06:45:23.495Z,0.90
2022-11-24T06:47:50.082Z,0.70
2022-11-24T06:50:19.810Z,0.77
2022-11-24T06:52:46.364Z,0.80
2022-11-24T06:55:13.021Z,0.82
2022-11-24T06:57:39.627Z,1.00
2022-11-24T07:00:07.992Z,1.00
2022-11-24T07:02:34.743Z,1.10
2022-11-24T07:05:06.078Z,1.60
2022-11-24T07:07:32.629Z,1.00
2022-11-24T07:10:01.442Z,1.23
2022-11-24T07:12:30.207Z,0.90
2022-11-24T07:15:01.559Z,1.30
2022-11-24T07:17:32.960Z,0.90
2022-11-24T07:20:01.737Z,0.77
2022-11-24T07:22:28.250Z,1.00
2022-11-24T07:24:54.741Z,0.70
2022-11-24T07:27:21.323Z,1.05
2022-11-24T07:29:50.198Z,1.00
2022-11-24T07:32:16.731Z,0.93
2022-11-24T07:34:43.320Z,0.77
2022-11-24T07:37:12.382Z,0.80
2022-11-24T07:39:38.893Z,1.48
2022-11-24T07:42:05.441Z,1.48
2022-11-24T07:44:32.269Z,0.90
2022-11-24T07:46:59.058Z,0.90
2022-11-24T07:49:27.825Z,1.23
2022-11-24T07:51:54.316Z,0.80
2022-11-24T07:54:22.930Z,0.60
2022-11-24T07:56:49.463Z,1.13
2022-11-24T07:59:20.543Z,0.70
2022-11-24T08:01:49.501Z,0.83
2022-11-24T08:04:16.052Z,0.90
2022-11-24T08:06:47.467Z,0.60
2022-11-24T08:09:14.263Z,0.70
2022-11-24T08:11:40.752Z,0.90
2022-11-24T08:14:07.347Z,0.80
2022-11-24T08:16:33.922Z,0.93
2022-11-24T08:19:02.768Z,0.70
2022-11-24T08:21:29.355Z,0.57
2022-11-24T08:24:00.527Z,1.02
2022-11-24T08:26:29.581Z,0.77
2022-11-24T08:28:58.557Z,0.90
2022-11-24T08:31:32.617Z,0.50
2022-11-24T08:34:07.349Z,0.70
2022-11-24T08:36:36.458Z,0.82
2022-11-24T08:39:03.399Z,0.60
2022-11-24T08:41:33.233Z,0.60
2022-11-24T08:44:01.989Z,0.80
2022-11-24T08:46:28.619Z,0.95
2022-11-24T08:48:57.715Z,0.70
2022-11-24T08:51:26.524Z,0.60
2022-11-24T08:54:04.782Z,0.57
2022-11-24T08:56:34.663Z,0.82
2022-11-24T08:59:01.823Z,1.27
2022-11-24T09:01:29.348Z,0.70
2022-11-24T09:04:00.853Z,0.43
2022-11-24T09:06:31.061Z,0.93
2022-11-24T09:09:00.658Z,0.60
2022-11-24T09:11:27.867Z,0.50
2022-11-24T09:13:55.088Z,0.63
2022-11-24T09:16:29.141Z,0.80
2022-11-24T09:19:06.621Z,0.82
2022-11-24T09:21:38.946Z,0.70
2022-11-24T09:24:10.025Z,0.57
2022-11-24T09:26:44.759Z,0.50
2022-11-24T09:29:14.285Z,0.80
2022-11-24T09:31:40.915Z,0.60
2022-11-24T09:34:13.745Z,0.75
2022-11-24T09:36:45.111Z,0.52
2022-11-24T09:39:11.766Z,0.50
2022-11-24T09:42:06.559Z,0.50
2022-11-24T09:45:00.369Z,1.13
2022-11-24T09:47:54.110Z,0.50
2022-11-24T09:50:22.608Z,0.77
2022-11-24T09:52:54.864Z,1.02
2022-11-24T09:55:25.272Z,0.93
2022-11-24T09:58:01.888Z,0.68
2022-11-24T10:00:30.130Z,0.60
2022-11-24T10:02:57.718Z,0.52
2022-11-24T10:05:29.136Z,0.40
2022-11-24T10:08:23.656Z,0.37
2022-11-24T10:11:13.694Z,0.60
2022-11-24T10:13:59.175Z,0.50
2022-11-24T10:16:44.618Z,0.70
2022-11-24T10:19:14.486Z,0.70
2022-11-24T10:21:46.433Z,0.50
2022-11-24T10:24:41.361Z,0.40
2022-11-24T10:27:25.678Z,0.70
2022-11-24T10:29:55.312Z,0.85
2022-11-24T10:32:28.043Z,0.50
2022-11-24T10:35:02.792Z,0.60
2022-11-24T10:37:40.738Z,0.60
2022-11-24T10:43:28.541Z,0.50
2022-11-24T10:46:01.054Z,0.82
2022-11-24T10:48:39.859Z,0.70
2022-11-24T10:51:33.023Z,0.52
2022-11-24T10:54:33.057Z,0.57
2022-11-24T10:57:02.250Z,0.55
2022-11-24T10:59:32.276Z,0.63
2022-11-24T11:02:02.290Z,0.50
2022-11-24T11:04:38.033Z,0.45
2022-11-24T11:07:30.877Z,0.75
2022-11-24T11:10:21.456Z,0.50
2022-11-24T11:12:53.166Z,0.60
2022-11-24T11:15:31.137Z,0.53
2022-11-24T11:18:03.722Z,0.90
2022-11-24T11:20:35.138Z,0.70
2022-11-24T11:23:14.756Z,0.90
2022-11-24T11:25:43.729Z,1.20
2022-11-24T11:28:29.253Z,0.50
2022-11-24T11:31:19.787Z,0.90
2022-11-24T11:34:03.679Z,1.00
2022-11-24T11:36:33.079Z,0.90
2022-11-24T11:39:00.106Z,1.48
2022-11-24T11:41:36.027Z,0.97
2022-11-24T11:44:30.321Z,0.90
2022-11-24T11:47:10.837Z,1.15
2022-11-24T11:49:40.967Z,1.00
2022-11-24T11:52:25.647Z,1.40
2022-11-24T11:55:25.656Z,1.20
2022-11-24T11:58:18.686Z,1.17
2022-11-24T12:01:15.775Z,1.40
2022-11-24T12:04:06.884Z,1.13
2022-11-24T12:06:36.181Z,1.10
2022-11-24T12:09:20.252Z,1.40
2022-11-24T12:12:22.605Z,1.10
2022-11-24T12:15:10.281Z,1.30
2022-11-24T12:17:46.561Z,1.40
2022-11-24T12:20:37.688Z,0.90
2022-11-24T12:23:26.656Z,1.17
2022-11-24T12:25:59.506Z,1.05
2022-11-24T12:28:35.169Z,1.10
2022-11-24T12:31:07.233Z,0.82
2022-11-24T12:33:36.442Z,0.93
2022-11-24T12:36:32.257Z,0.80
2022-11-24T12:39:26.032Z,0.95
2022-11-24T12:42:14.386Z,1.15
2022-11-24T12:45:00.561Z,0.77
2022-11-24T12:47:39.006Z,0.80
2022-11-24T12:50:12.868Z,0.73
2022-11-24T12:52:58.659Z,0.70
2022-11-24T12:55:27.849Z,0.95
2022-11-24T12:58:12.757Z,0.77
2022-11-24T13:01:29.998Z,0.95
2022-11-24T13:04:32.639Z,0.80
2022-11-24T13:07:17.554Z,1.10
2022-11-24T13:10:34.650Z,0.60
2022-11-24T13:13:12.721Z,0.55
2022-11-24T13:17:06.276Z,0.65
2022-11-24T13:18:53.366Z,0.60
2022-11-24T13:21:45.477Z,0.50
2022-11-24T13:24:20.491Z,0.88
2022-11-24T13:27:13.645Z,0.40
2022-11-24T13:29:48.005Z,0.50
2022-11-24T13:32:14.606Z,0.60
2022-11-24T13:34:42.630Z,0.80
2022-11-24T13:37:34.374Z,0.77
2022-11-24T13:40:22.657Z,0.52
2022-11-24T13:42:56.117Z,1.00
2022-11-24T13:45:41.555Z,0.80
2022-11-24T13:48:20.848Z,0.70
2022-11-24T13:50:50.799Z,0.52
2022-11-24T13:53:28.855Z,0.60
2022-11-24T13:56:01.695Z,0.95
2022-11-24T13:58:53.681Z,0.53
2022-11-24T14:01:23.245Z,0.55
2022-11-24T14:04:31.043Z,0.75
2022-11-24T14:07:08.359Z,0.90
2022-11-24T14:09:40.885Z,0.82
2022-11-24T14:12:24.301Z,0.67
2022-11-24T14:14:53.075Z,0.57
2022-11-24T14:17:22.606Z,0.70
2022-11-24T14:19:51.926Z,0.73
2022-11-24T14:22:31.825Z,1.05
2022-11-24T14:25:02.879Z,0.77
2022-11-24T14:27:34.255Z,0.73
2022-11-24T14:30:04.598Z,0.90
2022-11-24T14:32:31.134Z,0.57
2022-11-24T14:34:57.833Z,0.90
2022-11-24T14:37:24.648Z,0.67
2022-11-24T14:39:56.215Z,0.95
2022-11-24T14:42:30.364Z,0.70
2022-11-24T14:45:03.993Z,0.60
2022-11-24T14:47:36.546Z,0.80
2022-11-24T14:50:14.084Z,0.70
2022-11-24T14:52:54.222Z,0.73
2022-11-24T14:55:30.714Z,0.80
2022-11-24T14:58:00.137Z,0.82
2022-11-24T15:00:31.044Z,0.68
2022-11-24T15:03:00.406Z,0.70
2022-11-24T15:06:04.977Z,0.40
2022-11-24T15:08:38.465Z,0.80
2022-11-24T15:11:07.130Z,0.40
2022-11-24T15:13:40.400Z,0.40
2022-11-24T15:16:18.321Z,0.80
2022-11-24T15:18:55.056Z,0.68
2022-11-24T15:21:33.077Z,0.55
2022-11-24T15:24:17.626Z,1.05
2022-11-24T15:26:51.491Z,0.70
2022-11-24T15:29:18.041Z,0.57
2022-11-24T15:31:50.824Z,0.60
2022-11-24T15:34:21.390Z,0.65
2022-11-24T15:36:50.194Z,0.40
2022-11-24T15:39:19.244Z,0.57
2022-11-24T15:41:48.260Z,0.50
2022-11-24T15:44:14.813Z,0.38
2022-11-24T15:46:41.499Z,0.50
2022-11-24T15:49:08.232Z,0.60
2022-11-24T15:51:36.010Z,0.57
2022-11-24T15:54:07.201Z,0.60
2022-11-24T15:56:36.446Z,0.55
2022-11-24T15:59:04.038Z,0.50
2022-11-24T16:01:33.053Z,0.40
2022-11-24T16:04:00.565Z,0.45
2022-11-24T16:06:29.525Z,0.43
2022-11-24T16:08:57.684Z,0.70
2022-11-24T16:11:26.644Z,0.43
2022-11-24T16:13:54.328Z,0.40
2022-11-24T16:16:23.163Z,1.00
2022-11-24T16:18:49.885Z,0.80
2022-11-24T16:21:18.574Z,0.55
2022-11-24T16:23:45.723Z,0.50
2022-11-24T16:26:14.402Z,0.75
2022-11-24T16:28:45.229Z,0.77
2022-11-24T16:31:12.950Z,0.53
2022-11-24T16:33:44.558Z,0.60
2022-11-24T16:36:13.490Z,0.50
2022-11-24T16:38:40.108Z,0.40
2022-11-24T16:41:10.404Z,0.68
2022-11-24T16:43:37.307Z,0.80
2022-11-24T16:46:16.278Z,0.55
2022-11-24T16:48:46.190Z,0.60
2022-11-24T16:51:15.963Z,0.80
2022-11-24T16:53:47.851Z,0.70
2022-11-24T16:56:16.407Z,0.40
2022-11-24T16:58:43.249Z,0.50
2022-11-24T17:01:12.018Z,0.70
2022-11-24T17:03:42.158Z,0.70
2022-11-24T17:06:16.282Z,1.00
2022-11-24T17:08:46.139Z,0.47
2022-11-24T17:11:16.094Z,1.13
2022-11-24T17:13:44.361Z,0.80
2022-11-24T17:16:13.405Z,0.40
2022-11-24T17:18:40.448Z,0.50
2022-11-24T17:21:11.806Z,0.50
2022-11-24T17:23:41.313Z,0.75
2022-11-24T17:26:16.321Z,0.93
2022-11-24T17:28:43.687Z,0.57
2022-11-24T17:31:27.314Z,0.82
2022-11-24T17:33:59.658Z,0.80
2022-11-24T17:36:27.726Z,0.75
2022-11-24T17:39:01.610Z,1.05
2022-11-24T17:41:28.229Z,0.93
2022-11-24T17:43:56.654Z,0.82
2022-11-24T17:46:26.963Z,0.60
2022-11-24T17:48:54.326Z,0.50
2022-11-24T17:51:25.137Z,0.82
2022-11-24T17:53:53.394Z,0.70
2022-11-24T17:56:24.210Z,0.43
2022-11-24T17:58:57.590Z,0.80
2022-11-24T18:01:28.471Z,0.70
2022-11-24T18:03:55.140Z,0.70
2022-11-24T18:06:25.288Z,0.70
2022-11-24T18:08:55.175Z,0.82
2022-11-24T18:11:30.488Z,0.67
2022-11-24T18:14:01.439Z,0.68
2022-11-24T18:16:31.972Z,0.60
2022-11-24T18:19:10.119Z,0.70
2022-11-24T18:21:41.413Z,0.60
2022-11-24T18:24:11.846Z,0.60
2022-11-24T18:26:44.187Z,0.60
2022-11-24T18:29:11.698Z,0.90
2022-11-24T18:31:38.871Z,1.83
2022-11-24T18:34:08.775Z,1.83
2022-11-24T18:36:38.235Z,1.43
2022-11-24T18:39:07.451Z,0.90
2022-11-24T18:41:34.461Z,0.90
2022-11-24T18:44:07.922Z,0.60
2022-11-24T18:46:34.786Z,0.73
2022-11-24T18:49:03.808Z,1.17
2022-11-24T18:51:30.398Z,0.80
2022-11-24T18:53:59.939Z,1.88
2022-11-24T18:56:31.479Z,2.10
2022-11-24T18:59:00.230Z,1.20
2022-11-24T19:01:28.493Z,0.90
2022-11-24T19:04:00.369Z,1.63
2022-11-24T19:06:34.036Z,1.40
2022-11-24T19:09:29.163Z,0.80
2022-11-24T19:11:55.722Z,0.93
2022-11-24T19:14:22.221Z,0.90
2022-11-24T19:16:48.817Z,0.85
2022-11-24T19:19:18.119Z,0.93
2022-11-24T19:21:47.224Z,1.20
2022-11-24T19:24:13.819Z,0.50
2022-11-24T19:26:40.728Z,0.70
2022-11-24T19:29:07.888Z,1.05
2022-11-24T19:31:35.412Z,1.02
2022-11-24T19:34:03.480Z,1.17
2022-11-24T19:36:30.204Z,1.33
2022-11-24T19:38:59.752Z,1.20
2022-11-24T19:41:28.886Z,1.55
2022-11-24T19:43:56.716Z,1.58
2022-11-24T19:46:29.368Z,1.55
2022-11-24T19:48:58.675Z,1.45
2022-11-24T19:51:35.777Z,1.10
2022-11-24T19:54:02.995Z,0.90
2022-11-24T19:56:32.457Z,0.73
2022-11-24T19:59:02.874Z,0.90
2022-11-24T20:01:42.573Z,0.60
2022-11-24T20:04:12.515Z,0.80
2022-11-24T20:06:43.890Z,0.73
2022-11-24T20:09:15.191Z,0.47
2022-11-24T20:11:42.516Z,1.00
2022-11-24T20:14:14.908Z,1.10
2022-11-24T20:16:41.593Z,0.87
2022-11-24T20:19:11.795Z,1.33
2022-11-24T20:21:46.065Z,0.93
2022-11-24T20:24:15.091Z,0.73
2022-11-24T20:26:56.370Z,1.17
2022-11-24T20:29:22.964Z,1.67
2022-11-24T20:31:53.929Z,1.63
2022-11-24T20:34:23.330Z,2.10
2022-11-24T20:36:50.296Z,1.67
2022-11-24T20:39:23.894Z,1.88
2022-11-24T20:41:53.352Z,2.27
2022-11-24T20:44:22.198Z,2.58
2022-11-24T20:46:54.405Z,1.70
2022-11-24T20:49:21.889Z,1.60
2022-11-24T20:51:54.525Z,2.00
2022-11-24T20:54:23.899Z,1.60
2022-11-24T20:56:54.026Z,1.60
2022-11-24T20:59:22.914Z,1.42
2022-11-24T21:01:55.549Z,1.70
2022-11-24T21:04:25.586Z,1.30
2022-11-24T21:06:52.194Z,1.07
2022-11-24T21:09:21.698Z,1.27
2022-11-24T21:11:49.088Z,2.05
2022-11-24T21:14:15.770Z,2.67
2022-11-24T21:16:43.407Z,2.38
2022-11-24T21:19:12.824Z,2.30
2022-11-24T21:21:42.455Z,3.22
2022-11-24T21:24:14.814Z,2.92
2022-11-24T21:26:47.390Z,2.88
2022-11-24T21:29:17.117Z,2.97
2022-11-24T21:31:43.673Z,3.07
2022-11-24T21:34:14.691Z,3.38
2022-11-24T21:36:44.787Z,2.90
2022-11-24T21:39:17.126Z,3.45
2022-11-24T21:41:46.183Z,3.35
2022-11-24T21:44:16.032Z,2.80
2022-11-24T21:46:48.104Z,3.00
2022-11-24T21:49:20.314Z,3.65
2022-11-24T21:51:55.371Z,3.15
2022-11-24T21:54:22.432Z,2.92
2022-11-24T21:56:48.967Z,3.20
2022-11-24T21:59:15.448Z,3.25
2022-11-24T22:01:44.066Z,3.10
2022-11-24T22:04:10.661Z,3.10
2022-11-24T22:06:37.216Z,2.50
2022-11-24T22:09:03.771Z,2.57
2022-11-24T22:11:30.313Z,2.60
2022-11-24T22:13:58.953Z,2.75
2022-11-24T22:16:25.957Z,2.67
2022-11-24T22:18:52.903Z,2.97
2022-11-24T22:21:30.595Z,2.77
2022-11-24T22:24:02.917Z,2.78
2022-11-24T22:26:32.233Z,2.50
2022-11-24T22:29:01.748Z,2.30
2022-11-24T22:31:30.874Z,2.53
2022-11-24T22:34:02.776Z,2.07
2022-11-24T22:36:32.158Z,2.10
2022-11-24T22:39:03.774Z,2.08
2022-11-24T22:41:34.972Z,2.13
2022-11-24T22:44:02.150Z,2.20
2022-11-24T22:46:30.478Z,2.10
2022-11-24T22:49:01.923Z,1.85
2022-11-24T22:51:33.099Z,2.78
2022-11-24T22:54:02.302Z,2.00
2022-11-24T22:56:32.107Z,2.35
2022-11-24T22:59:00.297Z,2.70
2022-11-24T23:01:31.273Z,2.72
2022-11-24T23:04:00.352Z,3.13
2022-11-24T23:06:29.412Z,3.20
2022-11-24T23:08:57.285Z,3.00
2022-11-24T23:11:36.335Z,3.30
2022-11-24T23:14:11.686Z,3.97
2022-11-24T23:16:38.518Z,3.30
2022-11-24T23:19:08.094Z,3.90
2022-11-24T23:21:38.689Z,4.30
2022-11-24T23:24:09.963Z,4.03
2022-11-24T23:26:39.453Z,4.38
2022-11-24T23:29:06.663Z,4.70
2022-11-24T23:31:33.399Z,5.13
2022-11-24T23:34:04.323Z,4.57
2022-11-24T23:36:34.614Z,4.47
2022-11-24T23:39:06.481Z,4.28
2022-11-24T23:41:33.061Z,4.75
2022-11-24T23:44:00.184Z,4.38
2022-11-24T23:46:30.044Z,6.03
2022-11-24T23:48:59.285Z,4.13
2022-11-24T23:51:28.837Z,4.90
2022-11-24T23:53:56.412Z,4.60
2022-11-24T23:56:32.553Z,4.25
2022-11-24T23:59:00.665Z,4.95
